Terminal Aerodrome Forecast
Issued by NWS Missoula, MT

Home | Current Version | Previous Version | Text Only | Print | Product List | Glossary On
Versions: 1 2 3 4 5 6 7 8 9 10 11 12 13 14 15 16 17 18 19 20 21 22
000
FTUS45 KMSO 180520
TAFMSO
TAF
KMSO 180520Z 1806/1906 21003KT P6SM OVC045
     FM180800 17005KT 5SM -SN BR SCT025 OVC040
     FM181000 18008KT 2SM -SN BKN025 OVC050
     FM181400 26010KT 5SM -SNRA SCT025 OVC060
     FM181800 25010KT P6SM -SHRASN BKN060
     FM190000 25005KT P6SM VCSH BKN060=

USA.gov is the U.S. government's official web portal to all federal, state and local government web resources and services.